Time;durP1;ratioP1;P1;durP2;ratioP2;P2;SDS_P1;SDS_P2;PMS_P1;PMS_P2;Temp;Humidity;BMP_temperature;BMP_pressure;BME280_temperature;BME280_humidity;BME280_pressure;Samples;Min_cycle;Max_cycle;Signal;HPM_P1;HPM_P2
2023/07/12 00:01:41;;;;;;;4.90;3.37;;;23.00;52.20;;;;;;5249532;28;20178;-45
2023/07/12 00:04:12;;;;;;;3.03;2.83;;;23.00;52.40;;;;;;5236304;28;20455;-45
2023/07/12 00:06:42;;;;;;;3.13;2.83;;;22.90;52.40;;;;;;5243427;28;20187;-46
2023/07/12 00:09:14;;;;;;;3.57;3.30;;;22.90;52.60;;;;;;5248801;28;20209;-46
2023/07/12 00:11:45;;;;;;;8.43;3.00;;;22.90;52.70;;;;;;5215324;28;20194;-45
2023/07/12 00:14:16;;;;;;;3.10;2.80;;;22.90;52.70;;;;;;5252670;28;20440;-45
2023/07/12 00:16:46;;;;;;;7.20;3.90;;;22.90;52.80;;;;;;5248900;28;20416;-46
2023/07/12 00:19:17;;;;;;;4.53;4.13;;;22.90;52.80;;;;;;5228938;28;20603;-46
2023/07/12 00:21:48;;;;;;;5.03;3.73;;;22.90;53.10;;;;;;5251494;28;20293;-45
2023/07/12 00:24:18;;;;;;;3.77;3.30;;;22.80;52.90;;;;;;5253096;28;20185;-45
2023/07/12 00:26:49;;;;;;;3.00;2.80;;;22.80;53.10;;;;;;5234430;28;20199;-45
2023/07/12 00:29:20;;;;;;;5.27;3.40;;;22.80;53.10;;;;;;5253834;28;20583;-45
2023/07/12 00:31:51;;;;;;;4.17;3.70;;;22.80;53.20;;;;;;5249968;28;20279;-46
2023/07/12 00:34:21;;;;;;;11.13;3.33;;;22.70;53.30;;;;;;5245493;28;20257;-45
2023/07/12 00:36:52;;;;;;;8.30;3.77;;;22.70;53.40;;;;;;5242115;28;20178;-44
2023/07/12 00:39:23;;;;;;;3.90;3.60;;;22.70;53.40;;;;;;5235991;28;20182;-45
2023/07/12 00:42:22;;;;;;;4.37;3.93;;;22.70;53.50;;;;;;5251216;28;20202;-45
2023/07/12 00:44:57;;;;;;;4.50;3.23;;;22.70;53.60;;;;;;5240852;28;20191;-46
2023/07/12 00:47:32;;;;;;;4.53;3.07;;;22.60;53.80;;;;;;5252155;28;20892;-46
2023/07/12 00:50:17;;;;;;;13.27;3.57;;;22.60;53.90;;;;;;5236439;28;20845;-46
2023/07/12 00:52:48;;;;;;;4.17;3.77;;;22.60;54.00;;;;;;5252907;28;20919;-45
2023/07/12 00:55:55;;;;;;;7.53;3.67;;;22.60;54.10;;;;;;5249887;28;20428;-46
2023/07/12 00:58:32;;;;;;;3.40;3.13;;;22.60;54.10;;;;;;5248009;28;20183;-45
2023/07/12 01:01:05;;;;;;;5.60;3.93;;;22.60;54.80;;;;;;5228817;28;20458;-45
2023/07/12 01:03:38;;;;;;;3.27;3.10;;;22.50;54.30;;;;;;5229151;28;20448;-45
2023/07/12 01:06:13;;;;;;;4.17;3.70;;;22.50;54.40;;;;;;5246232;28;20433;-46
2023/07/12 01:08:44;;;;;;;4.80;4.40;;;22.50;54.50;;;;;;5231240;28;20459;-45
2023/07/12 01:11:17;;;;;;;5.20;3.20;;;22.50;54.50;;;;;;5244930;28;20729;-47
2023/07/12 01:13:50;;;;;;;3.47;3.20;;;22.50;54.50;;;;;;5242121;28;20437;-45
2023/07/12 01:16:22;;;;;;;4.43;3.50;;;22.50;54.50;;;;;;5248261;28;20923;-46
2023/07/12 01:18:53;;;;;;;5.97;4.53;;;22.50;54.50;;;;;;5241719;28;20429;-47
2023/07/12 01:21:27;;;;;;;3.93;3.60;;;22.50;54.60;;;;;;5225030;28;20515;-45
2023/07/12 01:23:58;;;;;;;4.80;4.30;;;22.50;54.70;;;;;;5213460;28;20174;-46
2023/07/12 01:26:33;;;;;;;3.73;3.43;;;22.50;54.70;;;;;;5249679;28;20529;-44
2023/07/12 01:29:06;;;;;;;4.37;3.80;;;22.50;54.80;;;;;;5224770;28;20214;-45
2023/07/12 01:31:38;;;;;;;4.23;3.60;;;22.50;54.80;;;;;;5238691;28;20436;-45
2023/07/12 01:34:09;;;;;;;3.80;3.50;;;22.40;54.80;;;;;;5235045;28;20986;-45
2023/07/12 01:36:40;;;;;;;5.40;4.03;;;22.40;54.90;;;;;;5239032;28;20432;-45
2023/07/12 01:39:11;;;;;;;3.97;3.50;;;22.50;55.00;;;;;;5246639;28;20496;-45
2023/07/12 01:41:42;;;;;;;3.30;3.13;;;22.40;55.00;;;;;;5228249;28;20570;-46
2023/07/12 01:44:13;;;;;;;4.13;3.50;;;22.40;55.10;;;;;;5246607;28;20416;-45
2023/07/12 01:46:43;;;;;;;4.50;3.77;;;22.40;55.20;;;;;;5242274;28;20193;-45
2023/07/12 01:49:14;;;;;;;3.67;3.47;;;22.40;55.20;;;;;;5240862;28;20367;-45
2023/07/12 01:51:46;;;;;;;3.63;3.33;;;22.30;55.30;;;;;;5244329;28;20202;-45
2023/07/12 01:54:16;;;;;;;4.20;3.80;;;22.40;55.50;;;;;;5214438;28;20186;-45
2023/07/12 01:56:47;;;;;;;3.70;3.40;;;22.30;55.50;;;;;;5250143;28;20436;-45
2023/07/12 01:59:18;;;;;;;6.77;3.63;;;22.30;55.60;;;;;;5246313;28;20196;-45
2023/07/12 02:01:49;;;;;;;4.10;3.70;;;22.30;55.60;;;;;;5234660;28;20232;-45
2023/07/12 02:04:20;;;;;;;4.00;3.70;;;22.30;55.80;;;;;;5232949;28;20523;-45
2023/07/12 02:06:51;;;;;;;12.73;4.10;;;22.20;55.90;;;;;;5231655;28;20870;-45
2023/07/12 02:09:21;;;;;;;3.77;3.57;;;22.20;55.90;;;;;;5221621;28;20697;-45
2023/07/12 02:11:52;;;;;;;3.90;3.53;;;22.20;56.00;;;;;;5248920;28;21199;-46
2023/07/12 02:14:23;;;;;;;5.63;3.30;;;22.20;56.10;;;;;;5244658;28;20580;-45
2023/07/12 02:16:54;;;;;;;4.00;3.70;;;22.20;56.80;;;;;;5245209;28;20174;-45
2023/07/12 02:19:24;;;;;;;7.17;3.97;;;22.10;56.20;;;;;;5243567;28;20189;-45
2023/07/12 02:21:55;;;;;;;5.03;3.27;;;22.20;56.40;;;;;;5240925;28;20214;-45
2023/07/12 02:24:26;;;;;;;4.53;3.90;;;22.10;56.40;;;;;;5231023;28;20554;-45
2023/07/12 02:26:56;;;;;;;4.17;3.77;;;22.10;56.50;;;;;;5240539;28;20262;-45
2023/07/12 02:29:27;;;;;;;4.10;3.70;;;22.10;56.60;;;;;;5253620;28;20198;-45
2023/07/12 02:31:58;;;;;;;3.60;3.30;;;22.10;56.70;;;;;;5236396;28;20206;-45
2023/07/12 02:34:29;;;;;;;4.60;4.20;;;22.00;56.70;;;;;;5248451;28;20182;-45
2023/07/12 02:36:59;;;;;;;5.70;3.97;;;22.00;56.90;;;;;;5236376;28;20448;-46
2023/07/12 02:39:30;;;;;;;5.53;4.10;;;22.00;57.00;;;;;;5245072;28;20540;-45
2023/07/12 02:42:03;;;;;;;5.20;3.53;;;21.90;57.00;;;;;;5230782;28;20236;-45
2023/07/12 02:44:37;;;;;;;4.00;3.50;;;21.90;57.20;;;;;;5226234;28;20429;-45
2023/07/12 02:47:09;;;;;;;4.10;3.80;;;22.00;57.40;;;;;;5254074;28;20441;-45
2023/07/12 02:49:40;;;;;;;7.90;3.97;;;22.00;57.40;;;;;;5250328;28;20432;-46
2023/07/12 02:52:11;;;;;;;7.83;4.50;;;22.00;57.50;;;;;;5237551;28;20876;-45
2023/07/12 02:54:42;;;;;;;4.30;3.90;;;22.00;57.50;;;;;;5238376;28;20570;-45
2023/07/12 02:57:14;;;;;;;4.40;4.00;;;21.90;57.40;;;;;;5250772;28;20182;-45
2023/07/12 02:59:45;;;;;;;3.80;3.30;;;21.90;57.50;;;;;;5237655;28;20586;-45
2023/07/12 03:02:15;;;;;;;5.03;4.00;;;21.90;57.60;;;;;;5226775;28;20433;-45
2023/07/12 03:04:46;;;;;;;4.63;3.83;;;22.00;57.80;;;;;;5234731;28;20198;-46
2023/07/12 03:07:17;;;;;;;5.67;5.07;;;22.00;57.70;;;;;;5249824;28;20182;-45
2023/07/12 03:09:48;;;;;;;5.87;4.90;;;22.00;57.90;;;;;;5244880;28;20190;-45
2023/07/12 03:12:18;;;;;;;11.83;4.20;;;22.10;57.80;;;;;;5239015;28;20202;-45
2023/07/12 03:14:50;;;;;;;4.00;3.70;;;22.10;57.90;;;;;;5232500;28;20417;-45
2023/07/12 03:17:21;;;;;;;5.83;4.87;;;22.10;58.00;;;;;;5228254;28;20174;-45
2023/07/12 03:19:54;;;;;;;4.13;3.77;;;22.10;58.00;;;;;;5236623;28;20448;-45
2023/07/12 03:22:24;;;;;;;5.87;4.60;;;22.10;58.20;;;;;;5236858;28;20209;-45
2023/07/12 03:24:55;;;;;;;9.30;4.20;;;22.10;58.30;;;;;;5243118;28;20432;-45
2023/07/12 03:27:26;;;;;;;4.77;4.37;;;22.00;58.60;;;;;;5242889;28;20256;-45
2023/07/12 03:29:56;;;;;;;8.17;5.17;;;22.00;58.70;;;;;;5214651;28;20178;-44
2023/07/12 03:32:27;;;;;;;5.63;4.20;;;22.10;59.00;;;;;;5251786;28;20371;-45
2023/07/12 03:34:58;;;;;;;5.23;4.73;;;22.00;59.20;;;;;;5245159;28;20186;-46
2023/07/12 03:37:29;;;;;;;6.13;4.50;;;22.10;59.50;;;;;;5243270;28;20193;-45
2023/07/12 03:39:59;;;;;;;6.90;5.87;;;22.10;59.50;;;;;;5223789;28;20178;-45
2023/07/12 03:42:30;;;;;;;5.03;4.30;;;22.10;59.70;;;;;;5254071;28;20195;-45
2023/07/12 03:45:02;;;;;;;5.30;4.80;;;22.10;59.70;;;;;;5247472;28;20197;-45
2023/07/12 03:47:34;;;;;;;6.37;4.87;;;22.20;59.80;;;;;;5232465;28;20205;-45
2023/07/12 03:50:05;;;;;;;10.03;4.87;;;22.20;59.70;;;;;;5250750;28;20451;-45
2023/07/12 03:52:36;;;;;;;5.90;4.47;;;22.30;59.80;;;;;;5251494;28;20499;-46
2023/07/12 03:55:07;;;;;;;5.53;5.03;;;22.30;59.90;;;;;;5244922;28;20429;-45
2023/07/12 03:57:41;;;;;;;5.47;4.97;;;22.40;60.20;;;;;;5248624;28;20506;-45
2023/07/12 04:00:13;;;;;;;7.50;4.93;;;22.60;59.90;;;;;;5224264;28;20533;-46
2023/07/12 04:02:43;;;;;;;5.97;4.57;;;22.60;59.80;;;;;;5234528;28;20863;-45
2023/07/12 04:05:14;;;;;;;5.93;5.00;;;22.60;59.90;;;;;;5215151;28;20483;-45
2023/07/12 04:07:46;;;;;;;6.20;5.53;;;22.60;60.00;;;;;;5243095;28;20210;-45
2023/07/12 04:10:16;;;;;;;9.60;4.77;;;22.60;60.80;;;;;;5234314;28;20174;-45
2023/07/12 04:12:47;;;;;;;11.63;5.10;;;22.70;60.10;;;;;;5252507;28;20439;-46
2023/07/12 04:15:18;;;;;;;7.70;5.10;;;22.90;60.10;;;;;;5245572;28;20178;-46
2023/07/12 04:17:49;;;;;;;9.23;4.70;;;23.00;59.70;;;;;;5245295;28;20183;-45
2023/07/12 04:20:19;;;;;;;8.33;5.30;;;23.00;59.90;;;;;;5252728;28;20186;-46
2023/07/12 04:22:51;;;;;;;6.10;5.03;;;23.10;59.70;;;;;;5246182;28;20205;-45
2023/07/12 04:25:22;;;;;;;7.27;5.00;;;23.20;59.70;;;;;;5238373;28;20189;-45
2023/07/12 04:27:53;;;;;;;6.80;5.70;;;23.20;59.70;;;;;;5241505;28;20457;-45
2023/07/12 04:30:24;;;;;;;7.77;5.50;;;23.30;59.80;;;;;;5248763;28;20178;-45
2023/07/12 04:32:54;;;;;;;6.03;4.93;;;23.20;59.60;;;;;;5254014;28;20205;-46
2023/07/12 04:35:25;;;;;;;7.20;5.20;;;23.30;59.70;;;;;;5251742;28;20481;-45
2023/07/12 04:37:57;;;;;;;7.67;5.40;;;23.40;59.70;;;;;;5246708;28;20208;-45
2023/07/12 04:40:27;;;;;;;8.90;6.40;;;23.40;59.70;;;;;;5235589;28;20183;-46
2023/07/12 04:42:58;;;;;;;5.67;5.13;;;23.40;60.00;;;;;;5236029;28;20444;-47
2023/07/12 04:45:29;;;;;;;11.47;5.97;;;23.40;60.10;;;;;;5242882;28;20214;-45
2023/07/12 04:48:00;;;;;;;6.40;5.03;;;23.60;59.70;;;;;;5229340;28;20209;-45
2023/07/12 04:50:32;;;;;;;7.73;5.63;;;23.50;60.10;;;;;;5251578;28;20193;-45
2023/07/12 04:53:03;;;;;;;10.97;6.00;;;23.50;60.20;;;;;;5251856;22;20375;-46
2023/07/12 04:55:35;;;;;;;8.83;5.97;;;23.60;60.40;;;;;;5210759;28;20426;-43
2023/07/12 04:58:07;;;;;;;10.70;6.20;;;23.90;59.70;;;;;;5186376;28;20211;-42
2023/07/12 05:00:37;;;;;;;10.40;7.40;;;23.80;60.00;;;;;;5227811;28;20455;-43
2023/07/12 05:03:08;;;;;;;8.53;6.63;;;23.90;59.90;;;;;;5226366;28;20434;-44
2023/07/12 05:05:39;;;;;;;11.47;6.40;;;24.00;59.70;;;;;;5217283;28;20179;-43
2023/07/12 05:08:10;;;;;;;7.53;5.90;;;24.10;60.00;;;;;;5207428;28;20210;-43
2023/07/12 05:10:41;;;;;;;6.17;5.37;;;24.20;60.30;;;;;;5202248;28;20441;-42
2023/07/12 05:13:12;;;;;;;8.43;6.30;;;24.40;59.60;;;;;;5211219;28;20461;-43
2023/07/12 05:15:52;;;;;;;7.00;5.93;;;24.60;59.70;;;;;;5207557;28;20485;-43
2023/07/12 05:18:23;;;;;;;6.70;6.00;;;24.70;59.50;;;;;;5224838;28;20628;-43
2023/07/12 05:20:54;;;;;;;7.90;5.33;;;24.80;59.20;;;;;;5210348;28;20426;-42
2023/07/12 05:23:24;;;;;;;7.93;6.10;;;24.80;59.10;;;;;;5214098;28;20662;-43
2023/07/12 05:25:56;;;;;;;9.10;5.80;;;25.00;59.10;;;;;;5221428;28;20191;-43
2023/07/12 05:28:26;;;;;;;11.00;6.57;;;25.10;58.90;;;;;;5201179;28;20226;-43
2023/07/12 05:30:57;;;;;;;7.20;5.80;;;25.10;58.80;;;;;;5217085;28;20473;-43
2023/07/12 05:33:28;;;;;;;8.00;7.17;;;25.20;58.90;;;;;;5206702;28;20206;-44
2023/07/12 05:36:00;;;;;;;11.60;7.53;;;25.10;59.00;;;;;;5207563;28;20194;-42
2023/07/12 05:38:31;;;;;;;16.10;7.30;;;25.10;59.20;;;;;;5217658;28;20741;-43
2023/07/12 05:41:02;;;;;;;7.10;5.60;;;25.10;59.30;;;;;;5208443;28;20512;-44
2023/07/12 05:43:34;;;;;;;7.70;6.03;;;25.10;59.40;;;;;;5209709;28;20233;-44
2023/07/12 05:46:04;;;;;;;9.57;6.50;;;25.10;59.60;;;;;;5209015;28;20441;-44
2023/07/12 05:48:36;;;;;;;8.90;6.63;;;25.10;59.70;;;;;;5224868;28;20976;-42
2023/07/12 05:51:08;;;;;;;9.57;7.90;;;25.10;59.80;;;;;;5214085;28;20179;-44
2023/07/12 05:53:38;;;;;;;7.50;6.70;;;25.20;59.80;;;;;;5219660;28;20452;-43
2023/07/12 05:56:09;;;;;;;9.93;6.90;;;25.30;59.90;;;;;;5217393;28;20433;-43
2023/07/12 05:58:40;;;;;;;9.23;6.30;;;25.30;60.00;;;;;;5209991;28;20175;-44
2023/07/12 06:01:10;;;;;;;9.63;7.53;;;25.20;60.20;;;;;;5210064;28;20194;-44
2023/07/12 06:03:42;;;;;;;8.20;6.80;;;25.10;60.50;;;;;;5189785;28;20235;-44
2023/07/12 06:06:12;;;;;;;9.63;7.73;;;25.10;60.90;;;;;;5209118;28;20373;-45
2023/07/12 06:08:43;;;;;;;11.87;7.10;;;25.00;61.40;;;;;;5220988;28;21031;-44
2023/07/12 06:11:13;;;;;;;10.00;7.07;;;25.00;61.40;;;;;;5218343;28;20231;-43
2023/07/12 06:13:45;;;;;;;15.53;7.20;;;25.00;62.10;;;;;;5215939;28;20214;-43
2023/07/12 06:16:16;;;;;;;9.27;7.17;;;25.00;62.40;;;;;;5220042;28;20337;-43
2023/07/12 06:18:47;;;;;;;11.80;7.60;;;24.90;62.60;;;;;;5206897;28;20525;-43
2023/07/12 06:21:17;;;;;;;13.70;5.93;;;24.90;63.10;;;;;;5192118;28;20348;-44
2023/07/12 06:23:49;;;;;;;11.30;7.47;;;24.90;63.30;;;;;;5223928;28;20194;-44
2023/07/12 06:26:19;;;;;;;8.60;6.87;;;24.90;63.70;;;;;;5210900;28;20259;-43
2023/07/12 06:28:50;;;;;;;8.73;7.40;;;24.90;63.90;;;;;;5218177;28;20536;-45
2023/07/12 06:31:21;;;;;;;10.20;6.53;;;25.00;63.90;;;;;;5217768;28;20393;-43
2023/07/12 06:33:51;;;;;;;8.17;6.77;;;25.10;63.90;;;;;;5223873;28;20195;-43
2023/07/12 06:36:22;;;;;;;8.27;6.20;;;25.40;64.00;;;;;;5224308;28;20266;-44
2023/07/12 06:38:53;;;;;;;12.03;7.20;;;26.50;63.90;;;;;;5225573;28;20289;-44
2023/07/12 06:41:23;;;;;;;12.07;7.20;;;29.40;57.50;;;;;;5221197;28;20266;-44
2023/07/12 06:43:54;;;;;;;12.33;7.67;;;32.60;51.50;;;;;;5218785;28;20551;-45
2023/07/12 06:46:25;;;;;;;8.50;6.57;;;34.80;46.30;;;;;;5213506;28;20195;-44
2023/07/12 06:48:55;;;;;;;10.33;6.27;;;36.50;43.00;;;;;;5214782;28;20198;-45
2023/07/12 06:51:26;;;;;;;9.02;5.35;;;37.80;40.60;;;;;;5207817;28;20256;-45
2023/07/12 06:53:57;;;;;;;5.93;4.85;;;38.80;38.60;;;;;;5209113;28;20252;-44
2023/07/12 06:56:27;;;;;;;6.13;5.40;;;39.50;37.60;;;;;;5223638;28;20205;-44
2023/07/12 06:58:58;;;;;;;11.18;5.55;;;40.10;36.60;;;;;;5220891;28;20258;-45
2023/07/12 07:01:29;;;;;;;8.95;5.10;;;39.70;36.30;;;;;;5213710;28;20191;-45
2023/07/12 07:03:59;;;;;;;7.75;5.38;;;38.50;37.60;;;;;;5207088;28;20662;-43
2023/07/12 07:06:31;;;;;;;10.85;5.15;;;37.40;39.60;;;;;;5224616;28;20190;-44
2023/07/12 07:09:02;;;;;;;11.98;4.93;;;37.70;39.50;;;;;;5198819;28;20622;-44
2023/07/12 07:11:32;;;;;;;7.70;4.78;;;37.90;39.60;;;;;;5212817;28;20205;-44
2023/07/12 07:14:03;;;;;;;18.30;5.65;;;38.00;38.40;;;;;;5228141;28;20670;-44
2023/07/12 07:16:33;;;;;;;9.32;4.35;;;36.80;39.50;;;;;;5226334;28;20186;-44
2023/07/12 07:19:04;;;;;;;17.98;5.35;;;35.90;41.40;;;;;;5224225;28;20195;-44
2023/07/12 07:21:36;;;;;;;4.78;4.35;;;35.40;42.60;;;;;;5227441;28;20175;-43
2023/07/12 07:24:07;;;;;;;7.57;4.35;;;36.00;41.80;;;;;;5223295;28;20206;-43
2023/07/12 07:26:38;;;;;;;9.70;4.82;;;35.30;42.40;;;;;;5200091;28;20194;-44
2023/07/12 07:29:08;;;;;;;12.90;5.77;;;34.00;43.90;;;;;;5228151;28;20241;-44
2023/07/12 07:31:39;;;;;;;11.13;5.63;;;32.50;46.60;;;;;;5212708;28;20182;-44
2023/07/12 07:34:10;;;;;;;7.20;5.33;;;31.20;48.80;;;;;;5222801;28;20207;-44
2023/07/12 07:36:41;;;;;;;6.10;5.17;;;30.50;50.80;;;;;;5223415;28;20309;-44
2023/07/12 07:39:11;;;;;;;7.30;4.50;;;30.20;51.70;;;;;;5225016;28;20202;-44
2023/07/12 07:41:42;;;;;;;13.60;5.40;;;29.80;51.70;;;;;;5219252;28;20908;-44
2023/07/12 07:44:13;;;;;;;14.70;5.37;;;29.20;52.50;;;;;;5218207;28;20203;-44
2023/07/12 07:46:43;;;;;;;10.90;5.57;;;28.70;53.60;;;;;;5227291;28;20711;-43
2023/07/12 07:49:14;;;;;;;9.43;6.13;;;28.20;54.40;;;;;;5212077;28;20267;-45
2023/07/12 07:51:45;;;;;;;13.83;5.90;;;28.00;54.70;;;;;;5227247;28;20666;-44
2023/07/12 07:54:15;;;;;;;6.40;5.63;;;27.70;55.10;;;;;;5207986;28;20214;-43
2023/07/12 07:56:48;;;;;;;10.57;5.97;;;27.70;54.60;;;;;;5212211;28;20194;-45
2023/07/12 07:59:19;;;;;;;10.07;6.17;;;27.80;54.70;;;;;;5218730;28;20215;-43
2023/07/12 08:01:50;;;;;;;8.30;6.80;;;28.00;54.40;;;;;;5212677;28;20519;-45
2023/07/12 08:04:20;;;;;;;6.73;6.03;;;28.40;54.20;;;;;;5212838;28;20622;-43
2023/07/12 08:06:52;;;;;;;4.50;4.10;;;29.90;51.60;;;;;;5209550;28;20655;-44
2023/07/12 08:09:22;;;;;;;5.47;5.00;;;29.80;49.50;;;;;;5226937;28;20289;-44
2023/07/12 08:11:53;;;;;;;5.67;4.63;;;28.60;50.80;;;;;;5206139;28;21028;-44
2023/07/12 08:14:24;;;;;;;6.17;3.80;;;27.70;53.00;;;;;;5220795;28;20285;-44
2023/07/12 08:16:54;;;;;;;4.40;4.10;;;27.10;54.20;;;;;;5208272;28;20554;-43
2023/07/12 08:19:25;;;;;;;4.00;3.60;;;26.90;55.10;;;;;;5207330;28;20754;-44
2023/07/12 08:21:56;;;;;;;4.40;4.00;;;27.80;53.40;;;;;;5204186;28;20639;-44
2023/07/12 08:24:26;;;;;;;6.50;5.03;;;28.70;52.50;;;;;;5212798;28;20206;-46
2023/07/12 08:26:57;;;;;;;5.47;3.93;;;31.20;48.10;;;;;;5226553;28;20236;-44
2023/07/12 08:29:28;;;;;;;3.47;3.27;;;33.30;44.40;;;;;;5223123;28;20216;-44
2023/07/12 08:31:58;;;;;;;4.03;3.63;;;34.70;41.80;;;;;;5220407;28;20224;-43
2023/07/12 08:34:29;;;;;;;4.90;3.80;;;35.90;40.20;;;;;;5221996;28;20183;-44
2023/07/12 08:37:00;;;;;;;3.90;3.60;;;36.40;38.90;;;;;;5209009;28;20187;-44
2023/07/12 08:39:30;;;;;;;4.10;3.75;;;36.00;39.30;;;;;;5212052;28;20230;-44
2023/07/12 08:42:09;;;;;;;2.10;2.00;;;35.70;39.70;;;;;;5216166;28;20203;-44
2023/07/12 08:44:40;;;;;;;3.70;3.40;;;36.00;39.60;;;;;;5220052;28;20651;-45
2023/07/12 08:47:19;;;;;;;3.40;3.20;;;35.70;39.60;;;;;;5216414;28;20202;-44
2023/07/12 08:49:50;;;;;;;3.47;3.10;;;34.30;41.10;;;;;;5219969;28;20179;-44
2023/07/12 08:52:27;;;;;;;11.63;3.40;;;33.00;43.20;;;;;;5207614;28;20207;-45
2023/07/12 08:55:01;;;;;;;10.63;3.53;;;31.90;45.10;;;;;;5225063;28;20178;-44
2023/07/12 08:57:33;;;;;;;3.20;3.03;;;30.70;47.10;;;;;;5225162;28;20203;-44
2023/07/12 09:00:22;;;;;;;6.43;3.03;;;29.70;49.40;;;;;;5238586;28;20838;-43
2023/07/12 09:02:52;;;;;;;3.23;2.63;;;29.30;50.80;;;;;;5211564;28;20456;-44
2023/07/12 09:05:24;;;;;;;2.60;2.43;;;28.90;51.20;;;;;;5211514;28;20436;-44
2023/07/12 09:08:13;;;;;;;3.10;2.80;;;28.80;51.70;;;;;;5215454;28;20698;-44
2023/07/12 09:10:44;;;;;;;3.10;2.80;;;29.10;51.60;;;;;;5219504;28;20442;-45
2023/07/12 09:13:16;;;;;;;4.70;3.03;;;29.50;51.00;;;;;;5225141;28;20542;-44
2023/07/12 09:15:49;;;;;;;3.73;3.30;;;29.30;50.80;;;;;;5210027;28;20237;-44
2023/07/12 09:18:33;;;;;;;3.07;2.90;;;29.40;51.10;;;;;;5223394;28;20433;-45
2023/07/12 09:21:22;;;;;;;2.80;2.00;;;29.30;51.20;;;;;;5222871;28;20429;-44
2023/07/12 09:23:59;;;;;;;2.43;2.33;;;29.40;51.60;;;;;;5207351;28;20868;-43
2023/07/12 09:26:32;;;;;;;13.87;2.90;;;29.40;51.20;;;;;;5216702;28;20449;-44
2023/07/12 09:29:21;;;;;;;2.23;2.13;;;29.20;51.70;;;;;;5216211;28;20462;-45
2023/07/12 09:31:58;;;;;;;2.20;2.00;;;28.90;52.40;;;;;;5217334;28;20436;-43
2023/07/12 09:34:38;;;;;;;2.20;2.10;;;28.60;52.90;;;;;;5225207;28;20425;-44
2023/07/12 09:37:15;;;;;;;3.10;2.07;;;28.30;53.60;;;;;;5224443;28;20438;-45
2023/07/12 09:40:00;;;;;;;5.97;4.17;;;28.00;54.70;;;;;;5203184;28;20478;-44
2023/07/12 09:42:31;;;;;;;2.70;2.53;;;28.10;55.10;;;;;;5222758;28;20793;-44
2023/07/12 09:45:04;;;;;;;2.40;2.00;;;28.30;54.10;;;;;;5218396;28;20425;-43
2023/07/12 09:47:55;;;;;;;9.83;3.50;;;28.30;53.80;;;;;;5218543;28;20471;-44
2023/07/12 09:50:28;;;;;;;5.17;2.93;;;28.40;53.90;;;;;;5211669;28;20804;-44
2023/07/12 09:53:17;;;;;;;4.20;3.77;;;27.90;54.70;;;;;;5209615;28;20461;-45
2023/07/12 09:55:57;;;;;;;2.50;1.90;;;27.70;55.40;;;;;;5208502;28;20473;-44
2023/07/12 09:59:11;;;;;;;1.87;1.67;;;27.30;56.20;;;;;;5222035;28;20493;-44
2023/07/12 10:02:19;;;;;;;5.27;2.80;;;27.60;56.60;;;;;;5116868;28;20434;-45
2023/07/12 10:04:55;;;;;;;3.63;3.33;;;27.70;55.90;;;;;;5218349;28;20957;-43
2023/07/12 10:07:37;;;;;;;4.33;2.37;;;28.10;54.90;;;;;;5204867;28;20441;-45
2023/07/12 10:10:27;;;;;;;2.27;2.10;;;28.10;55.40;;;;;;5197396;28;20437;-43
2023/07/12 10:13:12;;;;;;;4.67;3.80;;;28.10;55.00;;;;;;5213827;28;20426;-45
2023/07/12 10:15:43;;;;;;;3.20;2.93;;;28.20;55.00;;;;;;5225093;28;20417;-45
2023/07/12 10:18:24;;;;;;;1.97;1.87;;;28.00;55.50;;;;;;5218007;28;20438;-45
2023/07/12 10:20:56;;;;;;;8.83;5.27;;;28.10;55.80;;;;;;5195445;28;20499;-46
2023/07/12 10:23:34;;;;;;;20.63;8.60;;;27.90;55.50;;;;;;5211713;28;20480;-44
2023/07/12 10:26:09;;;;;;;8.63;3.83;;;27.90;55.30;;;;;;5225664;28;20432;-45
2023/07/12 10:28:59;;;;;;;1.90;1.80;;;28.10;55.30;;;;;;5207089;28;20463;-45
2023/07/12 10:31:52;;;;;;;6.63;5.27;;;28.40;54.50;;;;;;5220929;28;20433;-50
2023/07/12 10:34:31;;;;;;;7.60;6.20;;;28.50;54.10;;;;;;5193447;28;20496;-44
2023/07/12 10:37:24;;;;;;;3.53;2.93;;;28.60;53.10;;;;;;5214063;28;20458;-44
2023/07/12 10:39:55;;;;;;;3.20;2.90;;;28.10;52.50;;;;;;5202519;28;20975;-47
2023/07/12 10:42:31;;;;;;;9.20;3.73;;;28.00;53.10;;;;;;5227854;28;20426;-44
2023/07/12 10:45:05;;;;;;;3.60;2.03;;;28.10;53.10;;;;;;5213970;28;20240;-46
2023/07/12 10:47:40;;;;;;;2.27;1.90;;;28.40;52.80;;;;;;5209249;28;20433;-44
2023/07/12 10:50:44;;;;;;;3.13;1.60;;;28.40;52.10;;;;;;5208744;28;20572;-45
2023/07/12 10:53:22;;;;;;;7.37;4.67;;;28.30;52.70;;;;;;5244892;22;20490;-49
2023/07/12 10:56:18;;;;;;;1.57;1.47;;;28.20;53.50;;;;;;5258940;28;20522;-46
2023/07/12 10:58:57;;;;;;;4.10;3.53;;;28.10;53.80;;;;;;5241988;28;20432;-49
2023/07/12 11:01:43;;;;;;;10.30;4.27;;;27.90;54.40;;;;;;5229202;28;20423;-47
2023/07/12 11:04:36;;;;;;;3.70;2.60;;;27.90;54.20;;;;;;5238874;28;20876;-47
2023/07/12 11:07:10;;;;;;;4.30;2.23;;;28.10;53.30;;;;;;5215200;28;20420;-46
2023/07/12 11:09:45;;;;;;;8.47;2.03;;;28.40;52.40;;;;;;5231438;28;20531;-46
2023/07/12 11:12:32;;;;;;;10.00;4.07;;;28.60;52.80;;;;;;5231551;28;20443;-46
2023/07/12 11:15:18;;;;;;;4.30;3.87;;;28.70;52.10;;;;;;5226903;28;20518;-46
2023/07/12 11:17:57;;;;;;;2.50;2.30;;;28.70;51.80;;;;;;5242303;28;20897;-45
2023/07/12 11:20:32;;;;;;;2.60;2.50;;;28.90;51.30;;;;;;5227616;28;20420;-46
2023/07/12 11:23:06;;;;;;;3.27;2.97;;;29.40;50.50;;;;;;5239919;28;20455;-45
2023/07/12 11:25:48;;;;;;;4.10;3.80;;;29.60;49.40;;;;;;5229937;28;20797;-46
2023/07/12 11:28:22;;;;;;;7.10;5.00;;;29.60;48.60;;;;;;5244650;28;20563;-47
2023/07/12 11:31:12;;;;;;;2.17;2.00;;;29.50;48.40;;;;;;5227957;28;20483;-46
2023/07/12 11:33:51;;;;;;;3.30;2.47;;;29.30;48.50;;;;;;5239966;28;20467;-46
2023/07/12 11:36:31;;;;;;;4.53;4.03;;;28.60;48.20;;;;;;5245603;28;20439;-46
2023/07/12 11:39:08;;;;;;;12.33;7.97;;;28.50;48.90;;;;;;5246086;28;20513;-46
2023/07/12 11:41:50;;;;;;;6.53;4.37;;;28.80;48.90;;;;;;5242337;28;20482;-45
2023/07/12 11:44:22;;;;;;;4.50;1.90;;;28.70;48.50;;;;;;5246537;28;20459;-47
2023/07/12 11:46:53;;;;;;;1.60;1.50;;;28.50;48.60;;;;;;5225438;28;20436;-46
2023/07/12 11:49:29;;;;;;;4.67;2.17;;;28.50;48.90;;;;;;5242597;28;20467;-46
2023/07/12 11:52:12;;;;;;;2.83;2.30;;;28.50;48.60;;;;;;5233687;28;20413;-46
2023/07/12 11:54:43;;;;;;;1.20;1.10;;;28.70;48.30;;;;;;5233552;28;20539;-46
2023/07/12 11:57:14;;;;;;;8.07;5.80;;;28.50;47.90;;;;;;5250167;28;20520;-46
2023/07/12 11:59:47;;;;;;;10.40;4.83;;;28.70;47.70;;;;;;5244675;28;20518;-47
2023/07/12 12:02:21;;;;;;;38.97;9.77;;;28.70;47.00;;;;;;5245141;28;20530;-46
2023/07/12 12:04:59;;;;;;;9.13;1.70;;;28.50;47.50;;;;;;5247918;28;20437;-45
2023/07/12 12:07:39;;;;;;;1.37;1.37;;;28.40;47.40;;;;;;5250770;28;20435;-47
2023/07/12 12:10:34;;;;;;;2.83;1.87;;;28.40;47.80;;;;;;5249992;28;20428;-45
2023/07/12 12:13:20;;;;;;;3.10;1.63;;;28.50;47.70;;;;;;5241962;28;20443;-45
2023/07/12 12:15:57;;;;;;;1.17;1.17;;;28.80;46.90;;;;;;5250414;28;20424;-45
2023/07/12 12:18:28;;;;;;;5.33;1.27;;;29.00;45.50;;;;;;5251225;28;20470;-47
2023/07/12 12:21:05;;;;;;;2.00;1.33;;;29.20;45.10;;;;;;5248331;28;20436;-48
2023/07/12 12:23:41;;;;;;;1.73;1.07;;;29.20;45.40;;;;;;5233962;28;20245;-46
2023/07/12 12:26:19;;;;;;;1.07;1.00;;;29.40;46.00;;;;;;5246767;28;20437;-46
2023/07/12 12:28:58;;;;;;;1.20;1.20;;;29.50;45.30;;;;;;5243437;28;20459;-45
2023/07/12 12:31:31;;;;;;;3.20;2.80;;;29.60;44.90;;;;;;5251460;28;20411;-47
2023/07/12 12:34:14;;;;;;;8.13;2.20;;;29.60;44.50;;;;;;5212938;28;20444;-47
2023/07/12 12:37:04;;;;;;;2.50;1.37;;;29.30;43.30;;;;;;5234606;28;20436;-47
2023/07/12 12:39:36;;;;;;;2.43;1.30;;;29.40;44.20;;;;;;5250116;28;20438;-47
2023/07/12 12:42:22;;;;;;;1.13;1.00;;;29.20;44.00;;;;;;5231985;28;20509;-46
2023/07/12 12:44:54;;;;;;;2.07;1.07;;;28.70;44.60;;;;;;5232793;28;20447;-46
2023/07/12 12:47:30;;;;;;;1.40;1.30;;;28.70;45.80;;;;;;5251578;28;20930;-45
2023/07/12 12:50:01;;;;;;;1.10;1.10;;;28.60;45.90;;;;;;5249843;28;20471;-46
2023/07/12 12:52:37;;;;;;;6.07;3.53;;;28.70;45.90;;;;;;5250435;28;20430;-46
2023/07/12 12:55:09;;;;;;;8.53;5.17;;;28.70;45.90;;;;;;5214180;28;20557;-47
2023/07/12 12:57:41;;;;;;;1.20;1.20;;;28.50;45.80;;;;;;5251193;28;20522;-45
2023/07/12 13:00:19;;;;;;;3.30;2.00;;;28.40;46.20;;;;;;5227752;28;20457;-46
2023/07/12 13:02:54;;;;;;;1.70;1.60;;;28.40;46.50;;;;;;5221806;28;20453;-46
2023/07/12 13:05:27;;;;;;;3.57;3.10;;;28.40;46.40;;;;;;5250650;28;20530;-46
2023/07/12 13:08:04;;;;;;;4.00;2.77;;;28.50;46.00;;;;;;5241255;28;20460;-44
2023/07/12 13:10:35;;;;;;;1.03;0.93;;;28.80;46.00;;;;;;5243921;28;20421;-46
2023/07/12 13:13:16;;;;;;;1.03;1.03;;;29.00;45.10;;;;;;5250500;28;20444;-47
2023/07/12 13:15:48;;;;;;;1.40;1.40;;;29.20;44.30;;;;;;5234068;28;20444;-46
2023/07/12 13:18:24;;;;;;;2.93;2.67;;;29.30;44.50;;;;;;5248855;28;21081;-46
2023/07/12 13:20:56;;;;;;;1.20;1.20;;;29.20;43.90;;;;;;5232563;28;20443;-45